Flight Track Log - Related Links

Times and Time Zones

All times are in EDT time to prevent confusion due to time zone crossing. See the FDX1254 flight status page for this flight to view local times or setup timezone preferences in your user account.

Time Position Orientation Groundspeed Altitude Reporting Facility
EDT Latitude Longitude Course Direction KTS MPH feet Rate Location/Type
Mon 08:51:42 PM 41.7122 -71.4333 267° West 143 165 700  Level Boston Center
Mon 08:52:39 PM 41.7089 -71.5086 314° West 236 272 2,800 3,155 Climbing Boston Center
Mon 08:53:38 PM 41.7636 -71.5856 317° Northwest 270 311 6,800 3,731 Climbing Boston Center
Mon 08:54:38 PM 41.8247 -71.6628 329° Northwest 295 339 10,200 2,400 Climbing Boston Center
Mon 08:55:38 PM 41.9064 -71.7289 331° Northwest 348 400 11,600 2,083 Climbing Boston Center
Mon 08:56:39 PM 42.0214 -71.8142 329° Northwest 417 480 14,400 2,600 Climbing Boston Center
Mon 08:57:38 PM 42.1197 -71.8942 318° Northwest 454 522 16,800 2,218 Climbing Boston Center
Mon 08:58:38 PM 42.2058 -72.0000 280° West 468 539 18,800 2,100 Climbing Boston Center
Mon 08:59:38 PM 42.2292 -72.1736 276° West 427 491 21,000 2,050 Climbing Boston Center
Mon 09:00:38 PM 42.2419 -72.3447 276° West 437 503 22,900 1,983 Climbing Boston Center
Mon 09:01:39 PM 42.2567 -72.5214 276° West 463 533 25,000 1,884 Climbing Boston Center
Mon 09:02:39 PM 42.2708 -72.6981 276° West 474 545 26,700 1,600 Climbing Boston Center
Mon 09:03:39 PM 42.2850 -72.8806 268° West 486 559 28,200 1,513 Climbing Boston Center
Mon 09:04:38 PM 42.2800 -73.0686 264° West 492 566 29,700 1,714 Climbing Boston Center
Mon 09:05:38 PM 42.2639 -73.2650 264° West 492 566 31,600 1,900 Climbing Boston Center
Mon 09:06:38 PM 42.2525 -73.4161 262° West 487 560 33,500 1,895 Climbing Boston Center
Mon 09:08:10 PM 42.2236 -73.7069 263° West 465 535 36,400 1,892 Climbing FlightAware ADS-B
Mon 09:08:48 PM 42.2136 -73.8133 263° West 463 533 37,600 1,600 Climbing FlightAware ADS-B
Mon 09:09:25 PM 42.2037 -73.9219 263° West 463 533 38,400 1,371 Climbing FlightAware ADS-B
Mon 09:09:58 PM 42.1947 -74.0163 262° West 463 533 39,200 1,343 Climbing FlightAware ADS-B
Mon 09:10:32 PM 42.1855 -74.1101 263° West 461 531 39,900 483 Climbing FlightAware ADS-B
Mon 09:11:25 PM 42.1709 -74.2621 262° West 460 529 39,900  Level FlightAware ADS-B
Mon 09:11:55 PM 42.1627 -74.3456 262° West 452 520 39,900  Level FlightAware ADS-B
Mon 09:12:25 PM 42.1543 -74.4292 262° West 453 521 39,900  Level FlightAware ADS-B
Mon 09:12:57 PM 42.1455 -74.5189 262° West 455 524 39,900  Level FlightAware ADS-B
Mon 09:13:27 PM 42.1370 -74.6029 262° West 453 521 39,900  Level FlightAware ADS-B
Mon 09:13:58 PM 42.1284 -74.6892 262° West 452 520 39,900  Level FlightAware ADS-B
Mon 09:14:28 PM 42.1198 -74.7728 262° West 452 520 39,900  Level FlightAware ADS-B
Mon 09:14:59 PM 42.1108 -74.8591 262° West 453 521 39,900  Level FlightAware ADS-B
Mon 09:15:33 PM 42.1013 -74.9514 262° West 453 521 39,900  Level FlightAware ADS-B
Mon 09:16:03 PM 42.0925 -75.0380 266° West 454 522 39,900  Level FlightAware ADS-B
Mon 09:16:21 PM 42.0896 -75.0891 272° West 462 532 39,900  Level FlightAware ADS-B
Mon 09:16:52 PM 42.0922 -75.1793 273° West 470 541 39,900  Level FlightAware ADS-B
Mon 09:17:24 PM 42.0954 -75.2728 272° West 471 542 39,900  Level FlightAware ADS-B
Mon 09:17:55 PM 42.0973 -75.3603 267° West 471 542 39,900  Level FlightAware ADS-B
Mon 09:18:35 PM 42.0924 -75.4795 265° West 468 539 39,900  Level FlightAware ADS-B
Mon 09:19:06 PM 42.0866 -75.5690 264° West 467 537 39,900  Level FlightAware ADS-B
Mon 09:22:04 PM 42.0489 -76.0778 264° West 465 535 39,900  Level Cleveland Center
Mon 09:23:23 PM 42.0305 -76.3121 264° West 470 541 39,900  Level FlightAware ADS-B
Mon 09:24:09 PM 42.0201 -76.4460 264° West 472 543 39,900  Level FlightAware ADS-B
Mon 09:24:42 PM 42.0123 -76.5418 264° West 471 542 39,900  Level FlightAware ADS-B
Mon 09:25:46 PM 41.9973 -76.7273 264° West 469 540 39,900  Level FlightAware ADS-B
Mon 09:27:04 PM 41.9811 -76.9292 264° West 471 542 39,900  Level Cleveland Center
Mon 09:28:04 PM 41.9678 -77.1033 263° West 471 542 39,900  Level Cleveland Center
Mon 09:29:04 PM 41.9506 -77.2942 263° West 471 542 39,900  Level Cleveland Center
Mon 09:30:04 PM 41.9344 -77.4653 263° West 471 542 39,900  Level Cleveland Center
Mon 09:31:04 PM 41.9200 -77.6306 263° West 453 521 39,900  Level Cleveland Center
Mon 09:32:04 PM 41.9053 -77.7958 262° West 447 514 39,900  Level Cleveland Center
Mon 09:33:04 PM 41.8900 -77.9417 263° West 447 514 39,900  Level Cleveland Center
Mon 09:34:04 PM 41.8750 -78.1122 262° West 452 520 39,900  Level Cleveland Center
Mon 09:35:04 PM 41.8578 -78.2831 263° West 458 527 39,900  Level Cleveland Center
Mon 09:36:04 PM 41.8422 -78.4536 263° West 464 534 39,900  Level Cleveland Center
Mon 09:37:04 PM 41.8267 -78.6269 262° West 464 534 39,900  Level Cleveland Center
Mon 09:38:04 PM 41.8086 -78.7947 263° West 464 534 39,900  Level Cleveland Center
Mon 09:39:04 PM 41.7922 -78.9678 263° West 470 541 39,900  Level Cleveland Center
Mon 09:40:04 PM 41.7758 -79.1353 262° West 470 541 39,900  Level Cleveland Center
Mon 09:41:04 PM 41.7569 -79.3056 261° West 465 535 39,900  Level Cleveland Center
Mon 09:42:04 PM 41.7378 -79.4756 261° West 465 535 39,900  Level Cleveland Center
Mon 09:43:04 PM 41.7167 -79.6625 262° West 465 535 39,900  Level Cleveland Center
Mon 09:44:04 PM 41.6992 -79.8350 261° West 465 535 39,900  Level Cleveland Center
Mon 09:45:04 PM 41.6792 -79.9994 262° West 465 535 39,900  Level Cleveland Center
Mon 09:46:04 PM 41.6653 -80.1356 262° West 465 535 39,900  Level Cleveland Center
Mon 09:47:04 PM 41.6450 -80.3247 261° West 465 535 39,900  Level Cleveland Center
Mon 09:48:04 PM 41.6222 -80.5108 261° West 465 535 39,900  Level Cleveland Center
Mon 09:49:04 PM 41.6014 -80.6803 261° West 465 535 39,900  Level Cleveland Center
Mon 09:50:04 PM 41.5803 -80.8553 261° West 470 541 39,900  Level Cleveland Center
Mon 09:51:04 PM 41.5631 -81.0078 260° West 470 541 39,900  Level Cleveland Center
Mon 09:52:04 PM 41.5414 -81.1767 261° West 470 541 39,900  Level Cleveland Center
Mon 09:53:04 PM 41.5197 -81.3514 261° West 470 541 39,900  Level Cleveland Center
Mon 09:54:04 PM 41.4994 -81.5231 262° West 470 541 39,900  Level Cleveland Center
Mon 09:55:04 PM 41.4814 -81.6917 259° West 470 541 39,900  Level Cleveland Center
Mon 09:56:04 PM 41.4544 -81.8825 260° West 470 541 39,900  Level Cleveland Center
Mon 09:57:04 PM 41.4314 -82.0536 260° West 470 541 39,900  Level Cleveland Center
Mon 09:58:04 PM 41.4083 -82.2222 261° West 470 541 39,900  Level Cleveland Center
Mon 09:59:04 PM 41.3894 -82.3739 259° West 463 533 39,900 -500 Level Cleveland Center
Mon 10:00:04 PM 41.3656 -82.5447 260° West 468 539 38,900 -1,000 Descending Cleveland Center
Mon 10:01:04 PM 41.3439 -82.7100 260° West 463 533 37,900 -1,000 Descending Cleveland Center
Mon 10:02:04 PM 41.3197 -82.8836 259° West 468 539 36,900 -950 Descending Cleveland Center
Mon 10:03:04 PM 41.2953 -83.0539 259° West 468 539 36,000 -850 Descending Cleveland Center
Mon 10:04:04 PM 41.2681 -83.2436 260° West 468 539 35,200 -1,650 Descending Cleveland Center
Mon 10:05:04 PM 41.2453 -83.4111 259° West 468 539 32,700 -3,150 Descending Cleveland Center
Mon 10:06:04 PM 41.2200 -83.5839 260° West 468 539 28,900 -3,550 Descending Cleveland Center
Mon 10:07:04 PM 41.1992 -83.7403 259° West 468 539 25,600 -3,200 Descending Cleveland Center
Mon 10:08:04 PM 41.1758 -83.8992 258° West 468 539 22,500 -3,100 Descending Cleveland Center
Mon 10:09:04 PM 41.1506 -84.0553 260° West 450 518 19,400 -3,126 Descending Cleveland Center
Mon 10:10:03 PM 41.1281 -84.2161 259° West 428 493 16,300 -3,126 Descending Chicago Center
Mon 10:11:03 PM 41.1072 -84.3556 258° West 428 493 13,200 -2,550 Descending Chicago Center
Mon 10:12:03 PM 41.0861 -84.4922 259° West 405 466 11,200 -1,350 Descending Chicago Center
Mon 10:13:03 PM 41.0683 -84.6147 250° West 356 410 10,500 -650 Descending Chicago Center
Mon 10:14:03 PM 41.0411 -84.7161 240° Southwest 313 360 9,900 -1,250 Descending Chicago Center
Mon 10:15:03 PM 41.0008 -84.8069 242° Southwest 294 338 8,000 -1,550 Descending Chicago Center
Mon 10:16:03 PM 40.9686 -84.8861 248° West 261 300 6,800 -1,250 Descending Chicago Center
Mon 10:17:03 PM 40.9464 -84.9592 249° West 246 283 5,500 -1,250 Descending Chicago Center
Mon 10:18:03 PM 40.9281 -85.0236 258° West 214 246 4,300 -1,400 Descending Chicago Center
Mon 10:19:03 PM 40.9181 -85.0875 303° West 195 224 2,700 -1,150 Descending Chicago Center
Mon 10:20:03 PM 40.9361 -85.1250 303° West 148 170 2,000 -700 Descending Chicago Center

Login

Don't have an account? Register now (free) for customized features, flight alerts, and more!